createdAt,value
2022-12-24T00:01:03.062Z,8.37
2022-12-24T00:03:30.330Z,9.83
2022-12-24T00:05:57.578Z,10.93
2022-12-24T00:08:25.152Z,8.43
2022-12-24T00:10:53.677Z,5.27
2022-12-24T00:13:21.533Z,3.37
2022-12-24T00:15:56.279Z,7.03
2022-12-24T00:18:23.349Z,6.87
2022-12-24T00:20:51.048Z,9.53
2022-12-24T00:23:19.704Z,6.13
2022-12-24T00:25:55.469Z,7.00
2022-12-24T00:28:22.857Z,5.93
2022-12-24T00:30:49.547Z,4.88
2022-12-24T00:33:22.423Z,6.90
2022-12-24T00:35:52.846Z,7.20
2022-12-24T00:38:19.800Z,6.70
2022-12-24T00:40:46.518Z,3.70
2022-12-24T00:43:13.221Z,4.63
2022-12-24T00:45:40.422Z,6.97
2022-12-24T00:48:08.011Z,5.20
2022-12-24T00:50:34.762Z,6.70
2022-12-24T00:53:01.533Z,5.77
2022-12-24T00:55:29.890Z,5.73
2022-12-24T00:57:56.889Z,4.53
2022-12-24T01:00:23.916Z,5.87
2022-12-24T01:02:50.712Z,5.77
2022-12-24T01:05:17.730Z,4.93
2022-12-24T01:07:45.038Z,5.23
2022-12-24T01:10:13.888Z,4.30
2022-12-24T01:12:41.225Z,5.83
2022-12-24T01:15:09.786Z,4.60
2022-12-24T01:17:36.939Z,6.80
2022-12-24T01:20:06.280Z,5.13
2022-12-24T01:22:33.185Z,5.13
2022-12-24T01:24:59.884Z,8.27
2022-12-24T01:27:26.578Z,6.23
2022-12-24T01:29:53.839Z,7.97
2022-12-24T01:32:20.989Z,7.97
2022-12-24T01:34:47.708Z,8.63
2022-12-24T01:37:14.348Z,7.40
2022-12-24T01:39:41.065Z,7.17
2022-12-24T01:42:20.943Z,9.23
2022-12-24T01:44:51.440Z,6.53
2022-12-24T01:47:22.330Z,6.33
2022-12-24T01:49:53.650Z,7.60
2022-12-24T01:52:25.821Z,10.83
2022-12-24T01:54:58.186Z,5.77
2022-12-24T01:57:30.209Z,5.33
2022-12-24T02:00:01.810Z,9.27
2022-12-24T02:02:32.518Z,6.73
2022-12-24T02:05:06.139Z,9.23
2022-12-24T02:07:33.318Z,5.25
2022-12-24T02:10:01.492Z,6.30
2022-12-24T02:12:32.403Z,3.63
2022-12-24T02:14:59.704Z,5.23
2022-12-24T02:17:29.334Z,7.70
2022-12-24T02:20:20.179Z,5.30
2022-12-24T02:23:20.517Z,5.83
2022-12-24T02:25:50.302Z,9.03
2022-12-24T02:28:43.899Z,4.97
2022-12-24T02:31:20.947Z,5.17
2022-12-24T02:33:54.881Z,5.93
2022-12-24T02:36:54.477Z,8.80
2022-12-24T02:39:28.183Z,6.00
2022-12-24T02:41:58.573Z,6.30
2022-12-24T02:44:28.874Z,4.83
2022-12-24T02:46:59.094Z,6.03
2022-12-24T02:49:25.971Z,5.17
2022-12-24T02:51:52.570Z,8.00
2022-12-24T02:54:19.353Z,4.87
2022-12-24T02:56:54.425Z,7.03
2022-12-24T02:59:35.399Z,7.23
2022-12-24T03:02:14.377Z,7.30
2022-12-24T03:04:56.593Z,7.77
2022-12-24T03:07:46.708Z,5.17
2022-12-24T03:10:28.537Z,4.50
2022-12-24T03:13:08.205Z,6.17
2022-12-24T03:15:36.952Z,7.73
2022-12-24T03:18:05.946Z,7.73
2022-12-24T03:20:43.366Z,10.63
2022-12-24T03:23:10.660Z,7.53
2022-12-24T03:25:42.180Z,9.53
2022-12-24T03:28:12.269Z,8.70
2022-12-24T03:30:41.073Z,7.63
2022-12-24T03:33:07.976Z,6.07
2022-12-24T03:35:34.779Z,8.73
2022-12-24T03:38:01.591Z,7.87
2022-12-24T03:40:28.233Z,6.83
2022-12-24T03:42:54.904Z,7.70
2022-12-24T03:45:21.508Z,7.17
2022-12-24T03:47:48.193Z,9.30
2022-12-24T03:50:14.883Z,9.33
2022-12-24T03:52:41.659Z,7.37
2022-12-24T03:55:08.684Z,8.50
2022-12-24T03:57:35.462Z,11.07
2022-12-24T04:00:02.868Z,6.70
2022-12-24T04:02:39.041Z,8.73
2022-12-24T04:05:06.848Z,7.40
2022-12-24T04:07:33.844Z,6.73
2022-12-24T04:10:00.595Z,8.10
2022-12-24T04:12:27.256Z,7.33
2022-12-24T04:14:53.908Z,7.07
2022-12-24T04:17:20.591Z,6.83
2022-12-24T04:19:47.282Z,7.13
2022-12-24T04:22:13.905Z,7.77
2022-12-24T04:24:40.582Z,6.47
2022-12-24T04:27:07.206Z,8.30
2022-12-24T04:29:33.884Z,6.97
2022-12-24T04:32:00.617Z,6.90
2022-12-24T04:34:27.943Z,9.83
2022-12-24T04:36:54.588Z,5.87
2022-12-24T04:39:21.386Z,7.67
2022-12-24T04:41:48.054Z,7.03
2022-12-24T04:44:14.686Z,6.27
2022-12-24T04:46:41.353Z,9.97
2022-12-24T04:49:08.582Z,6.03
2022-12-24T04:51:35.252Z,6.73
2022-12-24T04:54:01.953Z,6.23
2022-12-24T04:56:31.559Z,5.33
2022-12-24T04:59:01.715Z,8.30
2022-12-24T05:01:30.751Z,7.13
2022-12-24T05:03:57.949Z,7.97
2022-12-24T05:06:29.281Z,7.13
2022-12-24T05:08:57.139Z,5.73
2022-12-24T05:11:24.381Z,8.90
2022-12-24T05:13:51.481Z,9.10
2022-12-24T05:16:20.651Z,5.93
2022-12-24T05:18:47.728Z,9.03
2022-12-24T05:21:19.469Z,9.33
2022-12-24T05:23:46.801Z,7.30
2022-12-24T05:26:30.252Z,8.53
2022-12-24T05:28:58.356Z,8.37
2022-12-24T05:31:26.714Z,12.63
2022-12-24T05:33:53.459Z,9.07
2022-12-24T05:36:20.577Z,8.50
2022-12-24T05:38:47.356Z,8.60
2022-12-24T05:41:13.940Z,15.23
2022-12-24T05:43:40.978Z,10.60
2022-12-24T05:46:13.677Z,9.33
2022-12-24T05:48:40.756Z,8.13
2022-12-24T05:51:09.677Z,8.00
2022-12-24T05:53:37.021Z,10.03
2022-12-24T05:56:11.631Z,8.63
2022-12-24T05:58:39.770Z,9.30
2022-12-24T06:01:07.376Z,8.60
2022-12-24T06:03:34.820Z,6.70
2022-12-24T06:06:05.726Z,12.93
2022-12-24T06:08:33.405Z,6.93
2022-12-24T06:11:02.741Z,9.87
2022-12-24T06:13:30.101Z,11.03
2022-12-24T06:16:01.455Z,10.43
2022-12-24T06:18:32.590Z,11.10
2022-12-24T06:21:00.100Z,14.03
2022-12-24T06:23:28.470Z,14.00
2022-12-24T06:25:57.310Z,12.13
2022-12-24T06:28:24.098Z,11.80
2022-12-24T06:30:53.639Z,8.53
2022-12-24T06:33:24.033Z,9.70
2022-12-24T06:35:50.661Z,9.13
2022-12-24T06:38:17.365Z,12.50
2022-12-24T06:40:46.388Z,6.53
2022-12-24T06:43:14.403Z,8.87
2022-12-24T06:45:45.484Z,8.47
2022-12-24T06:48:12.666Z,8.80
2022-12-24T06:50:39.561Z,7.83
2022-12-24T06:53:06.318Z,10.60
2022-12-24T06:55:33.149Z,7.90
2022-12-24T06:57:59.833Z,7.47
2022-12-24T07:00:26.474Z,7.00
2022-12-24T07:02:53.335Z,10.17
2022-12-24T07:05:20.028Z,7.47
2022-12-24T07:07:46.692Z,9.60
2022-12-24T07:10:15.682Z,9.50
2022-12-24T07:12:42.687Z,5.20
2022-12-24T07:15:10.386Z,9.93
2022-12-24T07:17:37.188Z,9.13
2022-12-24T07:20:05.131Z,7.90
2022-12-24T07:22:31.799Z,8.87
2022-12-24T07:24:58.529Z,8.97
2022-12-24T07:27:25.167Z,6.47
2022-12-24T07:29:51.767Z,7.27
2022-12-24T07:32:18.715Z,7.57
2022-12-24T07:34:45.307Z,6.90
2022-12-24T07:37:12.111Z,6.27
2022-12-24T07:39:38.799Z,9.07
2022-12-24T07:42:05.561Z,8.27
2022-12-24T07:44:32.198Z,6.50
2022-12-24T07:46:58.963Z,6.40
2022-12-24T07:49:25.745Z,8.83
2022-12-24T07:51:52.462Z,8.37
2022-12-24T07:54:19.317Z,7.23
2022-12-24T07:56:46.929Z,7.00
2022-12-24T07:59:14.000Z,8.77
2022-12-24T08:01:41.509Z,12.07
2022-12-24T08:04:08.466Z,7.83
2022-12-24T08:06:35.219Z,10.27
2022-12-24T08:09:01.873Z,7.93
2022-12-24T08:11:28.789Z,7.97
2022-12-24T08:13:55.441Z,6.70
2022-12-24T08:16:22.353Z,6.60
2022-12-24T08:18:49.084Z,7.30
2022-12-24T08:21:15.999Z,5.27
2022-12-24T08:23:42.786Z,8.00
2022-12-24T08:26:10.725Z,5.03
2022-12-24T08:28:37.787Z,7.27
2022-12-24T08:31:05.272Z,9.40
2022-12-24T08:33:31.976Z,5.20
2022-12-24T08:36:01.156Z,6.33
2022-12-24T08:38:27.867Z,4.80
2022-12-24T08:40:55.314Z,6.53
2022-12-24T08:43:22.005Z,7.10
2022-12-24T08:45:50.081Z,6.83
2022-12-24T08:48:17.271Z,4.03
2022-12-24T08:50:44.143Z,4.10
2022-12-24T08:53:11.427Z,4.27
2022-12-24T08:55:38.141Z,5.77
2022-12-24T08:58:04.931Z,5.80
2022-12-24T09:00:31.862Z,4.00
2022-12-24T09:02:58.667Z,2.60
2022-12-24T09:05:26.148Z,3.50
2022-12-24T09:07:53.367Z,3.07
2022-12-24T09:10:20.220Z,6.23
2022-12-24T09:12:46.984Z,4.80
2022-12-24T09:15:13.743Z,6.07
2022-12-24T09:17:40.338Z,3.67
2022-12-24T09:20:08.256Z,9.97
2022-12-24T09:22:36.684Z,5.93
2022-12-24T09:25:04.035Z,5.37
2022-12-24T09:27:31.501Z,4.40
2022-12-24T09:29:58.338Z,6.20
2022-12-24T09:32:25.043Z,4.03
2022-12-24T09:34:51.713Z,5.07
2022-12-24T09:37:18.401Z,4.27
2022-12-24T09:39:45.163Z,5.00
2022-12-24T09:42:41.034Z,2.80
2022-12-24T09:45:20.028Z,4.43
2022-12-24T09:47:50.607Z,5.60
2022-12-24T09:50:34.817Z,4.20
2022-12-24T09:53:06.675Z,3.87
2022-12-24T09:55:43.997Z,6.03
2022-12-24T09:58:28.465Z,5.73
2022-12-24T10:00:56.474Z,2.83
2022-12-24T10:03:23.339Z,3.70
2022-12-24T10:06:31.760Z,3.43
2022-12-24T10:09:03.178Z,3.33
2022-12-24T10:11:47.188Z,4.80
2022-12-24T10:14:51.779Z,4.03
2022-12-24T10:17:53.224Z,2.57
2022-12-24T10:20:25.934Z,6.77
2022-12-24T10:23:01.387Z,6.53
2022-12-24T10:25:40.497Z,7.93
2022-12-24T10:28:15.754Z,4.10
2022-12-24T10:30:44.739Z,10.90
2022-12-24T10:33:18.852Z,6.17
2022-12-24T10:35:52.685Z,4.37
2022-12-24T10:38:19.571Z,7.30
2022-12-24T10:40:50.106Z,6.90
2022-12-24T10:43:21.109Z,8.07
2022-12-24T10:45:51.489Z,6.15
2022-12-24T10:48:27.432Z,3.65
2022-12-24T10:51:06.650Z,5.15
2022-12-24T10:53:48.131Z,7.47
2022-12-24T10:56:18.583Z,5.43
2022-12-24T10:58:50.661Z,6.20
2022-12-24T11:01:17.822Z,4.97
2022-12-24T11:03:44.771Z,5.03
2022-12-24T11:06:13.039Z,6.00
2022-12-24T11:08:42.763Z,6.23
2022-12-24T11:11:13.768Z,4.67
2022-12-24T11:14:14.725Z,6.00
2022-12-24T11:16:50.519Z,2.88
2022-12-24T11:19:20.563Z,4.63
2022-12-24T11:21:47.194Z,5.10
2022-12-24T11:24:13.856Z,5.32
2022-12-24T11:26:43.469Z,6.63
2022-12-24T11:29:25.631Z,5.53
2022-12-24T11:32:09.905Z,5.47
2022-12-24T11:34:36.802Z,7.07
2022-12-24T11:37:16.022Z,5.07
2022-12-24T11:40:02.261Z,6.32
2022-12-24T11:42:38.307Z,8.63
2022-12-24T11:45:21.173Z,6.75
2022-12-24T11:47:47.846Z,6.78
2022-12-24T11:50:32.892Z,10.87
2022-12-24T11:53:07.123Z,10.48
2022-12-24T11:55:41.352Z,10.25
2022-12-24T11:58:26.321Z,12.82
2022-12-24T12:01:03.005Z,8.48
2022-12-24T12:03:39.941Z,8.63
2022-12-24T12:06:23.795Z,9.17
2022-12-24T12:08:56.274Z,9.43
2022-12-24T12:11:26.003Z,7.97
2022-12-24T12:13:56.572Z,8.23
2022-12-24T12:16:29.764Z,9.38
2022-12-24T12:19:07.472Z,8.65
2022-12-24T12:21:44.307Z,8.85
2022-12-24T12:24:19.775Z,10.97
2022-12-24T12:26:48.817Z,15.57
2022-12-24T12:29:21.197Z,6.73
2022-12-24T12:31:52.631Z,7.87
2022-12-24T12:34:26.467Z,13.57
2022-12-24T12:37:32.060Z,17.07
2022-12-24T12:39:58.892Z,15.97
2022-12-24T12:42:33.917Z,12.20
2022-12-24T12:45:25.097Z,11.68
2022-12-24T12:47:54.908Z,12.67
2022-12-24T12:50:40.536Z,10.15
2022-12-24T12:53:19.397Z,8.87
2022-12-24T12:56:16.189Z,12.93
2022-12-24T12:58:52.343Z,10.80
2022-12-24T13:01:52.293Z,9.88
2022-12-24T13:04:34.319Z,11.37
2022-12-24T13:07:03.572Z,7.88
2022-12-24T13:09:32.890Z,9.45
2022-12-24T13:12:11.910Z,9.23
2022-12-24T13:15:06.738Z,10.05
2022-12-24T13:18:02.160Z,10.70
2022-12-24T13:20:32.665Z,9.43
2022-12-24T13:23:12.199Z,7.38
2022-12-24T13:25:58.824Z,9.50
2022-12-24T13:28:25.507Z,8.53
2022-12-24T13:30:53.161Z,8.70
2022-12-24T13:33:43.183Z,8.43
2022-12-24T13:36:12.500Z,8.03
2022-12-24T13:38:45.692Z,9.23
2022-12-24T13:41:40.239Z,10.82
2022-12-24T13:44:07.616Z,9.20
2022-12-24T13:46:46.130Z,9.07
2022-12-24T13:49:19.673Z,11.90
2022-12-24T13:51:46.853Z,10.20
2022-12-24T13:54:18.542Z,6.80
2022-12-24T13:56:46.206Z,10.87
2022-12-24T13:59:26.134Z,11.98
2022-12-24T14:01:53.366Z,8.50
2022-12-24T14:04:29.327Z,7.77
2022-12-24T14:06:59.598Z,9.87
2022-12-24T14:09:28.634Z,12.47
2022-12-24T14:12:01.543Z,10.20
2022-12-24T14:14:32.328Z,10.35
2022-12-24T14:17:06.000Z,11.27
2022-12-24T14:19:42.411Z,6.40
2022-12-24T14:22:12.168Z,8.40
2022-12-24T14:24:43.437Z,11.00
2022-12-24T14:27:32.365Z,8.63
2022-12-24T14:30:02.985Z,11.60
2022-12-24T14:32:35.867Z,9.17
2022-12-24T14:35:15.406Z,10.20
2022-12-24T14:37:46.242Z,8.47
2022-12-24T14:40:20.367Z,9.57
2022-12-24T14:43:08.912Z,9.87
2022-12-24T14:45:47.405Z,10.90
2022-12-24T14:48:39.021Z,8.90
2022-12-24T14:51:30.455Z,7.87
2022-12-24T14:54:03.246Z,8.90
2022-12-24T14:56:29.952Z,6.73
2022-12-24T14:58:56.541Z,8.73
2022-12-24T15:01:29.463Z,7.37
2022-12-24T15:04:03.643Z,8.37
2022-12-24T15:06:34.600Z,10.27
2022-12-24T15:09:01.681Z,18.17
2022-12-24T15:11:28.646Z,10.97
2022-12-24T15:13:59.157Z,11.63
2022-12-24T15:16:30.538Z,11.63
2022-12-24T15:19:02.915Z,8.23
2022-12-24T15:21:33.567Z,9.97
2022-12-24T15:24:00.687Z,11.33
2022-12-24T15:26:33.153Z,10.53
2022-12-24T15:29:03.688Z,8.50
2022-12-24T15:31:31.426Z,9.57
2022-12-24T15:33:59.457Z,8.63
2022-12-24T15:36:30.966Z,10.87
2022-12-24T15:39:00.775Z,12.03
2022-12-24T15:41:35.988Z,9.67
2022-12-24T15:44:03.339Z,10.40
2022-12-24T15:46:31.845Z,8.93
2022-12-24T15:49:02.280Z,11.23
2022-12-24T15:51:33.913Z,10.37
2022-12-24T15:54:11.483Z,10.33
2022-12-24T15:56:42.390Z,12.67
2022-12-24T15:59:20.991Z,13.90
2022-12-24T16:01:48.689Z,9.63
2022-12-24T16:04:21.468Z,12.23
2022-12-24T16:06:53.407Z,10.47
2022-12-24T16:09:35.315Z,10.00
2022-12-24T16:12:12.057Z,6.40
2022-12-24T16:14:38.940Z,10.43
2022-12-24T16:17:23.060Z,10.80
2022-12-24T16:19:59.080Z,9.00
2022-12-24T16:22:26.488Z,10.30
2022-12-24T16:24:53.088Z,10.10
2022-12-24T16:27:19.788Z,10.90
2022-12-24T16:29:46.496Z,10.17
2022-12-24T16:32:33.206Z,13.17
2022-12-24T16:35:01.693Z,12.63
2022-12-24T16:37:28.360Z,9.93
2022-12-24T16:39:55.308Z,7.37
2022-12-24T16:42:21.952Z,11.07
2022-12-24T16:44:52.089Z,9.87
2022-12-24T16:47:22.091Z,12.00
2022-12-24T16:49:49.000Z,11.67
2022-12-24T16:52:19.160Z,10.43
2022-12-24T16:54:45.888Z,13.23
2022-12-24T16:57:12.963Z,9.63
2022-12-24T16:59:39.666Z,10.07
2022-12-24T17:02:14.009Z,12.53
2022-12-24T17:04:42.004Z,13.67
2022-12-24T17:07:10.735Z,8.90
2022-12-24T17:09:37.511Z,12.97
2022-12-24T17:12:04.660Z,12.07
2022-12-24T17:14:31.931Z,15.10
2022-12-24T17:16:58.678Z,13.73
2022-12-24T17:19:25.450Z,11.37
2022-12-24T17:21:52.173Z,11.13
2022-12-24T17:24:18.928Z,11.00
2022-12-24T17:26:45.918Z,9.27
2022-12-24T17:29:12.773Z,9.97
2022-12-24T17:31:39.500Z,16.87
2022-12-24T17:34:06.400Z,9.13
2022-12-24T17:36:33.110Z,8.67
2022-12-24T17:38:59.753Z,8.90
2022-12-24T17:41:26.418Z,13.93
2022-12-24T17:43:53.229Z,10.27
2022-12-24T17:46:22.576Z,12.23
2022-12-24T17:48:53.758Z,12.90
2022-12-24T17:51:26.918Z,11.97
2022-12-24T17:54:01.585Z,15.60
2022-12-24T17:56:33.570Z,15.07
2022-12-24T17:59:00.644Z,12.83
2022-12-24T18:01:30.792Z,12.90
2022-12-24T18:04:02.553Z,12.23
2022-12-24T18:06:29.431Z,13.20
2022-12-24T18:08:56.125Z,11.60
2022-12-24T18:11:49.208Z,14.00
2022-12-24T18:14:18.682Z,10.97
2022-12-24T18:16:49.340Z,12.73
2022-12-24T18:19:20.672Z,13.17
2022-12-24T18:21:51.977Z,15.13
2022-12-24T18:24:19.840Z,16.47
2022-12-24T18:26:49.481Z,13.83
2022-12-24T18:29:17.804Z,12.53
2022-12-24T18:31:45.932Z,15.83
2022-12-24T18:34:14.935Z,10.37
2022-12-24T18:36:51.145Z,14.80
2022-12-24T18:39:22.027Z,11.83
2022-12-24T18:41:49.088Z,17.73
2022-12-24T18:44:24.247Z,13.17
2022-12-24T18:46:51.946Z,15.20
2022-12-24T18:49:18.598Z,15.70
2022-12-24T18:51:45.270Z,14.60
2022-12-24T18:54:11.893Z,13.93
2022-12-24T18:56:38.586Z,13.73
2022-12-24T18:59:05.188Z,12.13
2022-12-24T19:01:34.363Z,10.67
2022-12-24T19:04:01.341Z,12.73
2022-12-24T19:06:30.836Z,11.67
2022-12-24T19:08:59.759Z,9.20
2022-12-24T19:11:29.129Z,10.37
2022-12-24T19:13:55.877Z,16.37
2022-12-24T19:16:22.956Z,10.80
2022-12-24T19:18:49.998Z,6.40
2022-12-24T19:21:18.803Z,9.13
2022-12-24T19:23:46.591Z,9.10
2022-12-24T19:26:17.251Z,10.87
2022-12-24T19:28:44.923Z,7.93
2022-12-24T19:31:20.854Z,5.90
2022-12-24T19:33:53.820Z,8.10
2022-12-24T19:36:24.238Z,7.57
2022-12-24T19:38:50.920Z,10.30
2022-12-24T19:41:19.976Z,9.37
2022-12-24T19:43:48.883Z,6.20
2022-12-24T19:46:19.959Z,8.40
2022-12-24T19:48:56.976Z,9.50
2022-12-24T19:51:25.201Z,8.50
2022-12-24T19:53:54.510Z,7.53
2022-12-24T19:56:25.422Z,9.67
2022-12-24T19:58:52.355Z,6.47
2022-12-24T20:01:24.340Z,7.93
2022-12-24T20:03:53.014Z,10.07
2022-12-24T20:06:21.924Z,10.37
2022-12-24T20:08:48.997Z,11.47
2022-12-24T20:11:18.223Z,12.27
2022-12-24T20:13:46.267Z,12.77
2022-12-24T20:16:19.263Z,15.87
2022-12-24T20:18:57.790Z,14.23
2022-12-24T20:21:25.679Z,17.03
2022-12-24T20:23:52.937Z,9.80
2022-12-24T20:26:22.554Z,14.27
2022-12-24T20:28:49.895Z,14.87
2022-12-24T20:31:28.036Z,14.50
2022-12-24T20:33:57.388Z,18.37
2022-12-24T20:36:25.934Z,21.10
2022-12-24T20:38:52.760Z,20.10
2022-12-24T20:41:21.788Z,14.63
2022-12-24T20:43:49.209Z,14.13
2022-12-24T20:46:17.899Z,12.60
2022-12-24T20:48:44.865Z,11.00
2022-12-24T20:51:22.785Z,12.43
2022-12-24T20:53:52.728Z,11.10
2022-12-24T20:56:19.817Z,12.00
2022-12-24T20:58:46.653Z,13.80
2022-12-24T21:01:17.772Z,11.50
2022-12-24T21:03:45.041Z,11.50
2022-12-24T21:06:11.832Z,12.43
2022-12-24T21:08:38.616Z,13.27
2022-12-24T21:11:05.352Z,12.77
2022-12-24T21:13:34.421Z,15.03
2022-12-24T21:16:01.303Z,9.53
2022-12-24T21:18:28.091Z,11.23
2022-12-24T21:20:54.792Z,8.00
2022-12-24T21:23:24.471Z,11.00
2022-12-24T21:26:00.206Z,9.93
2022-12-24T21:28:28.156Z,8.63
2022-12-24T21:30:55.083Z,11.67
2022-12-24T21:33:22.615Z,16.13
2022-12-24T21:35:49.316Z,20.23
2022-12-24T21:38:16.152Z,17.67
2022-12-24T21:40:42.804Z,9.30
2022-12-24T21:43:10.192Z,10.70
2022-12-24T21:45:40.680Z,13.40
2022-12-24T21:48:07.339Z,15.87
2022-12-24T21:50:34.362Z,18.33
2022-12-24T21:53:01.717Z,17.87
2022-12-24T21:55:28.445Z,24.73
2022-12-24T21:57:55.549Z,18.13
2022-12-24T22:00:22.220Z,14.33
2022-12-24T22:02:51.930Z,16.77
2022-12-24T22:05:19.643Z,14.83
2022-12-24T22:07:46.549Z,13.60
2022-12-24T22:10:15.309Z,16.83
2022-12-24T22:12:42.133Z,16.23
2022-12-24T22:15:09.071Z,12.93
2022-12-24T22:17:35.767Z,11.93
2022-12-24T22:20:02.534Z,14.00
2022-12-24T22:22:29.793Z,15.67
2022-12-24T22:24:56.373Z,21.63
2022-12-24T22:27:23.125Z,11.10
2022-12-24T22:29:49.718Z,14.63
2022-12-24T22:32:16.377Z,16.93
2022-12-24T22:34:43.201Z,18.87
2022-12-24T22:37:09.916Z,17.60
2022-12-24T22:39:36.557Z,17.47
2022-12-24T22:42:03.285Z,11.77
2022-12-24T22:44:29.983Z,10.17
2022-12-24T22:46:56.745Z,9.90
2022-12-24T22:49:23.804Z,15.27
2022-12-24T22:51:50.424Z,11.23
2022-12-24T22:54:17.025Z,12.47
2022-12-24T22:56:44.125Z,14.13
2022-12-24T22:59:14.293Z,15.07
2022-12-24T23:01:44.379Z,16.83
2022-12-24T23:04:12.166Z,20.17
2022-12-24T23:06:39.377Z,15.17
2022-12-24T23:09:08.488Z,15.27
2022-12-24T23:11:35.777Z,24.33
2022-12-24T23:14:02.498Z,21.40
2022-12-24T23:16:31.845Z,20.20
2022-12-24T23:19:00.649Z,24.70
2022-12-24T23:21:28.095Z,17.47
2022-12-24T23:23:57.342Z,20.33
2022-12-24T23:26:24.820Z,12.87
2022-12-24T23:28:51.629Z,20.17
2022-12-24T23:31:19.777Z,18.77
2022-12-24T23:33:47.020Z,17.80
2022-12-24T23:36:14.052Z,21.27
2022-12-24T23:38:41.024Z,13.77
2022-12-24T23:41:09.413Z,19.90
2022-12-24T23:43:37.160Z,17.07
2022-12-24T23:46:04.435Z,20.07
2022-12-24T23:48:31.206Z,15.67
2022-12-24T23:51:26.304Z,20.47
2022-12-24T23:53:54.980Z,17.80
2022-12-24T23:56:23.710Z,18.13
2022-12-24T23:58:50.770Z,21.03
